Time;durP1;ratioP1;P1;durP2;ratioP2;P2;SDS_P1;SDS_P2;PMS_P1;PMS_P2;Temp;Humidity;BMP_temperature;BMP_pressure;BME280_temperature;BME280_humidity;BME280_pressure;Samples;Min_cycle;Max_cycle;Signal;HPM_P1;HPM_P2
2022/12/13 00:00:36;;;;;;;;;;;;;;;6.53;100.00;99392.59;5090614;28;19963;-27
2022/12/13 00:03:01;;;;;;;;;;;;;;;6.43;100.00;99403.59;5090891;28;19916;-27
2022/12/13 00:05:27;;;;;;;;;;;;;;;6.52;100.00;99395.44;5072289;28;19924;-31
2022/12/13 00:07:52;;;;;;;;;;;;;;;6.52;100.00;99404.22;5090266;28;19923;-30
2022/12/13 00:10:17;;;;;;;;;;;;;;;6.63;100.00;99392.97;5072169;28;19916;-28
2022/12/13 00:12:42;;;;;;;;;;;;;;;6.76;100.00;99389.47;5090951;28;20376;-33
2022/12/13 00:15:08;;;;;;;;;;;;;;;6.71;100.00;99399.06;5090252;28;19963;-29
2022/12/13 00:17:33;;;;;;;;;;;;;;;6.87;100.00;99398.59;5090267;28;19989;-30
2022/12/13 00:19:58;;;;;;;;;;;;;;;6.79;100.00;99396.97;5090153;28;19916;-30
2022/12/13 00:22:24;;;;;;;;;;;;;;;6.79;100.00;99402.28;5090356;28;19912;-29
2022/12/13 00:24:49;;;;;;;;;;;;;;;6.93;100.00;99397.75;5090420;28;20003;-29
2022/12/13 00:27:14;;;;;;;;;;;;;;;6.90;99.59;99406.09;5090194;28;20524;-27
2022/12/13 00:29:40;;;;;;;;;;;;;;;6.91;99.70;99404.28;5089728;28;19922;-27
2022/12/13 00:32:05;;;;;;;;;;;;;;;6.92;99.69;99406.69;5090317;28;19916;-27
2022/12/13 00:34:30;;;;;;;;;;;;;;;6.95;97.50;99405.50;5090304;28;19920;-28
2022/12/13 00:37:03;;;;;;;;;;;;;;;6.96;97.94;99407.09;5090157;28;19923;-29
2022/12/13 00:39:28;;;;;;;;;;;;;;;6.96;97.92;99407.91;5071888;28;19912;-32
2022/12/13 00:41:54;;;;;;;;;;;;;;;6.91;97.66;99414.88;5071320;28;20403;-27
2022/12/13 00:44:19;;;;;;;;;;;;;;;6.71;95.78;99407.81;5090214;28;19961;-28
2022/12/13 00:46:44;;;;;;;;;;;;;;;6.88;95.67;99404.69;5071717;28;20082;-27
2022/12/13 00:49:11;;;;;;;;;;;;;;;6.53;96.91;99407.69;5089848;28;19918;-28
2022/12/13 00:51:36;;;;;;;;;;;;;;;6.36;96.35;99413.41;5090006;28;19919;-28
2022/12/13 00:54:02;;;;;;;;;;;;;;;6.47;96.23;99409.31;5071097;28;20656;-32
2022/12/13 00:56:28;;;;;;;;;;;;;;;6.39;96.11;99414.84;5089585;28;19927;-31
2022/12/13 00:58:54;;;;;;;;;;;;;;;6.56;95.10;99431.09;5071040;28;19919;-28
2022/12/13 01:01:23;;;;;;;;;;;;;;;6.41;95.26;99423.38;5089540;28;19916;-29
2022/12/13 01:03:48;;;;;;;;;;;;;;;6.38;94.05;99432.56;5089486;28;19924;-27
2022/12/13 01:06:16;;;;;;;;;;;;;;;6.30;92.80;99435.44;5089684;28;19916;-28
2022/12/13 01:08:41;;;;;;;;;;;;;;;6.37;93.47;99430.13;5089544;28;19916;-29
2022/12/13 01:11:07;;;;;;;;;;;;;;;6.28;93.52;99437.47;5071052;28;20437;-31
2022/12/13 01:13:33;;;;;;;;;;;;;;;6.29;93.49;99433.78;5089398;28;20687;-28
2022/12/13 01:16:00;;;;;;;;;;;;;;;6.32;91.84;99428.09;5089111;28;20373;-30
2022/12/13 01:18:25;;;;;;;;;;;;;;;6.32;92.01;99432.59;5089125;28;19938;-27
2022/12/13 01:20:57;;;;;;;;;;;;;;;6.34;92.09;99431.34;5071073;28;20007;-30
2022/12/13 01:23:22;;;;;;;;;;;;;;;6.23;91.92;99437.25;5070988;28;19916;-32
2022/12/13 01:25:48;;;;;;;;;;;;;;;6.02;89.54;99433.00;5088780;28;19943;-28
2022/12/13 01:28:13;;;;;;;;;;;;;;;5.95;89.45;99440.16;5089293;28;19923;-28
2022/12/13 01:30:38;;;;;;;;;;;;;;;5.74;89.11;99420.78;5089119;28;19916;-31
2022/12/13 01:33:04;;;;;;;;;;;;;;;5.93;92.53;99439.53;5089035;28;19957;-28
2022/12/13 01:35:32;;;;;;;;;;;;;;;6.03;91.93;99430.16;5070836;28;19915;-27
2022/12/13 01:37:57;;;;;;;;;;;;;;;6.12;92.43;99432.59;5070384;28;19927;-29
2022/12/13 01:40:23;;;;;;;;;;;;;;;6.08;91.08;99431.38;5088996;28;19915;-29
2022/12/13 01:42:48;;;;;;;;;;;;;;;5.95;88.50;99443.63;5088638;28;20443;-30
2022/12/13 01:45:13;;;;;;;;;;;;;;;5.96;90.32;99429.34;5088945;28;19922;-29
2022/12/13 01:47:44;;;;;;;;;;;;;;;5.92;90.28;99433.38;5088455;28;20642;-34
2022/12/13 01:50:12;;;;;;;;;;;;;;;5.72;89.35;99440.50;5070686;28;19946;-29
2022/12/13 01:52:39;;;;;;;;;;;;;;;5.63;89.48;99435.41;5088489;28;20098;-30
2022/12/13 01:55:06;;;;;;;;;;;;;;;5.49;89.61;99439.06;5070235;28;19927;-31
2022/12/13 01:57:33;;;;;;;;;;;;;;;5.46;89.10;99444.75;5088649;28;19954;-28
2022/12/13 01:59:58;;;;;;;;;;;;;;;5.50;89.08;99442.53;5088174;28;19919;-30
2022/12/13 02:02:23;;;;;;;;;;;;;;;5.40;89.46;99441.09;5088538;28;19919;-27
2022/12/13 02:04:53;;;;;;;;;;;;;;;5.20;89.74;99441.03;5088437;28;19964;-27
2022/12/13 02:07:20;;;;;;;;;;;;;;;5.14;91.54;99446.31;5088363;28;19966;-27
2022/12/13 02:09:45;;;;;;;;;;;;;;;5.17;91.15;99445.88;5087711;28;20315;-28
2022/12/13 02:12:11;;;;;;;;;;;;;;;5.11;90.32;99442.22;5087998;28;19912;-32
2022/12/13 02:14:36;;;;;;;;;;;;;;;5.01;90.35;99436.50;5088648;28;20007;-27
2022/12/13 02:17:21;;;;;;;;;;;;;;;5.07;91.24;99441.00;5088348;28;19923;-27
2022/12/13 02:19:52;;;;;;;;;;;;;;;5.12;89.93;99443.03;5069590;28;19942;-28
2022/12/13 02:22:20;;;;;;;;;;;;;;;5.01;89.84;99450.53;5069573;28;19962;-28
2022/12/13 02:24:45;;;;;;;;;;;;;;;5.10;90.76;99451.16;5069654;28;19916;-34
2022/12/13 02:27:20;;;;;;;;;;;;;;;5.20;89.14;99448.97;5088354;28;19919;-30
2022/12/13 02:29:57;;;;;;;;;;;;;;;4.89;90.69;99446.00;5087678;28;19916;-31
2022/12/13 02:32:25;;;;;;;;;;;;;;;4.96;91.11;99454.75;5088014;28;20467;-28
2022/12/13 02:34:55;;;;;;;;;;;;;;;4.72;91.95;99442.88;5087645;28;19924;-27
2022/12/13 02:37:26;;;;;;;;;;;;;;;4.83;90.50;99455.53;5088023;28;19932;-28
2022/12/13 02:40:01;;;;;;;;;;;;;;;4.72;90.53;99464.84;5069232;28;20682;-28
2022/12/13 02:42:27;;;;;;;;;;;;;;;4.55;90.01;99458.22;5087722;28;19920;-28
2022/12/13 02:45:12;;;;;;;;;;;;;;;4.45;91.03;99463.03;5087665;28;19961;-26
2022/12/13 02:47:40;;;;;;;;;;;;;;;4.19;90.36;99453.94;5086835;28;19912;-35
2022/12/13 02:50:06;;;;;;;;;;;;;;;4.21;91.03;99465.13;5068781;28;19920;-29
2022/12/13 02:52:32;;;;;;;;;;;;;;;4.18;90.46;99460.22;5068898;28;19965;-27
2022/12/13 02:54:58;;;;;;;;;;;;;;;4.18;89.88;99470.78;5087091;28;19924;-29
2022/12/13 02:57:31;;;;;;;;;;;;;;;4.15;88.93;99461.44;5087109;28;19965;-27
2022/12/13 03:00:00;;;;;;;;;;;;;;;4.28;89.07;99463.34;5068283;28;20670;-28
2022/12/13 03:02:45;;;;;;;;;;;;;;;4.31;88.60;99470.06;5087237;28;19916;-27
2022/12/13 03:08:07;;;;;;;;;;;;;;;4.15;88.43;99457.97;5084272;28;19965;-29
2022/12/13 03:10:37;;;;;;;;;;;;;;;4.20;89.02;99474.03;5068777;28;19916;-27
2022/12/13 03:15:57;;;;;;;;;;;;;;;4.05;89.17;99471.50;5084757;28;19969;-28
2022/12/13 03:18:24;;;;;;;;;;;;;;;3.98;89.41;99474.09;5068170;28;19963;-28
2022/12/13 03:20:54;;;;;;;;;;;;;;;3.86;89.63;99491.41;5087018;28;19916;-29
2022/12/13 03:23:20;;;;;;;;;;;;;;;3.99;90.03;99482.81;5068704;28;19973;-28
2022/12/13 03:25:48;;;;;;;;;;;;;;;3.88;89.72;99480.69;5089847;28;20353;-28
2022/12/13 03:28:13;;;;;;;;;;;;;;;3.70;90.69;99496.94;5091043;28;19951;-27
2022/12/13 03:30:39;;;;;;;;;;;;;;;3.81;90.12;99493.81;5090732;28;20393;-28
2022/12/13 03:33:04;;;;;;;;;;;;;;;3.90;90.01;99503.22;5090676;28;20443;-28
2022/12/13 03:35:29;;;;;;;;;;;;;;;4.02;88.83;99507.00;5072459;28;19920;-27
2022/12/13 03:37:55;;;;;;;;;;;;;;;4.14;88.10;99507.28;5090794;28;19916;-30
2022/12/13 03:40:20;;;;;;;;;;;;;;;3.93;89.19;99504.69;5090523;28;19912;-29
2022/12/13 03:42:46;;;;;;;;;;;;;;;4.16;89.33;99504.47;5090724;28;19916;-28
2022/12/13 03:45:11;;;;;;;;;;;;;;;4.18;88.40;99505.91;5072758;28;19926;-26
2022/12/13 03:47:36;;;;;;;;;;;;;;;4.15;90.41;99506.28;5090746;28;19939;-28
2022/12/13 03:50:02;;;;;;;;;;;;;;;4.20;88.88;99501.25;5090886;28;19916;-28
2022/12/13 03:52:27;;;;;;;;;;;;;;;4.12;90.45;99511.13;5090933;28;19916;-29
2022/12/13 03:54:52;;;;;;;;;;;;;;;4.03;90.06;99510.47;5090995;28;19973;-28
2022/12/13 03:57:17;;;;;;;;;;;;;;;4.08;91.63;99505.41;5090878;28;19927;-30
2022/12/13 03:59:43;;;;;;;;;;;;;;;4.21;90.34;99508.16;5090673;28;20350;-30
2022/12/13 04:02:08;;;;;;;;;;;;;;;4.19;88.38;99506.75;5091003;28;19922;-29
2022/12/13 04:04:33;;;;;;;;;;;;;;;4.15;87.66;99500.22;5090790;28;19912;-27
2022/12/13 04:06:58;;;;;;;;;;;;;;;4.03;88.57;99507.81;5090788;28;19916;-33
2022/12/13 04:09:24;;;;;;;;;;;;;;;4.01;87.60;99508.00;5090603;28;19916;-31
2022/12/13 04:14:33;;;;;;;;;;;;;;;4.05;88.74;99511.06;5090455;28;19922;-27
2022/12/13 04:16:58;;;;;;;;;;;;;;;4.02;88.67;99496.44;5090015;28;19920;-31
2022/12/13 04:19:23;;;;;;;;;;;;;;;4.12;88.27;99497.94;5089033;28;19924;-27
2022/12/13 04:21:49;;;;;;;;;;;;;;;4.12;88.45;99495.28;5088566;28;20285;-30
2022/12/13 04:24:15;;;;;;;;;;;;;;;4.05;88.43;99512.91;5088689;28;19973;-27
2022/12/13 04:26:40;;;;;;;;;;;;;;;4.11;87.86;99520.06;5070216;28;19923;-27
2022/12/13 04:29:05;;;;;;;;;;;;;;;4.25;87.19;99521.81;5088617;28;19916;-29
2022/12/13 04:31:31;;;;;;;;;;;;;;;4.32;86.85;99527.94;5088522;28;20289;-30
2022/12/13 04:33:56;;;;;;;;;;;;;;;4.17;86.24;99524.59;5088757;28;19915;-27
2022/12/13 04:36:24;;;;;;;;;;;;;;;4.20;85.88;99532.09;5088365;28;19916;-28
2022/12/13 04:38:49;;;;;;;;;;;;;;;4.21;86.86;99531.91;5070163;28;19922;-28
2022/12/13 04:41:16;;;;;;;;;;;;;;;4.15;86.57;99545.88;5088471;28;19916;-27
2022/12/13 04:43:42;;;;;;;;;;;;;;;4.13;87.27;99557.63;5069907;28;19923;-29
2022/12/13 04:46:07;;;;;;;;;;;;;;;4.26;88.05;99560.38;5088370;28;19919;-29
2022/12/13 04:48:33;;;;;;;;;;;;;;;4.29;87.60;99560.00;5088178;28;19916;-26
2022/12/13 04:50:59;;;;;;;;;;;;;;;4.21;87.41;99553.03;5088366;28;19931;-31
2022/12/13 04:53:24;;;;;;;;;;;;;;;4.19;86.79;99564.78;5088504;28;19916;-28
2022/12/13 04:55:49;;;;;;;;;;;;;;;4.28;87.43;99563.66;5069648;28;19912;-28
2022/12/13 04:58:15;;;;;;;;;;;;;;;4.33;86.86;99576.25;5088024;28;20629;-28
2022/12/13 05:00:40;;;;;;;;;;;;;;;4.37;85.44;99578.34;5088150;28;19916;-28
2022/12/13 05:03:05;;;;;;;;;;;;;;;4.23;86.04;99576.59;5069941;28;19912;-27
2022/12/13 05:05:31;;;;;;;;;;;;;;;4.28;86.83;99578.66;5088646;28;19922;-28
2022/12/13 05:07:56;;;;;;;;;;;;;;;4.34;86.60;99589.28;5069580;28;19912;-28
2022/12/13 05:10:21;;;;;;;;;;;;;;;4.14;86.09;99577.72;5088392;28;19922;-28
2022/12/13 05:12:46;;;;;;;;;;;;;;;4.24;87.23;99586.16;5087965;28;19926;-29
2022/12/13 05:15:12;;;;;;;;;;;;;;;4.26;86.17;99597.34;5087775;28;19991;-27
2022/12/13 05:17:37;;;;;;;;;;;;;;;4.35;86.31;99606.78;5030103;28;1128692;-35
2022/12/13 05:20:02;;;;;;;;;;;;;;;4.29;87.98;99606.69;5088913;28;20311;-29
2022/12/13 05:22:28;;;;;;;;;;;;;;;4.39;84.54;99608.03;5070728;28;20014;-29
2022/12/13 05:24:53;;;;;;;;;;;;;;;4.25;84.60;99611.56;5089116;28;19916;-27
2022/12/13 05:27:19;;;;;;;;;;;;;;;4.13;83.99;99613.06;5070770;28;20015;-28
2022/12/13 05:29:44;;;;;;;;;;;;;;;4.27;84.29;99609.53;5088712;28;20427;-28
2022/12/13 05:32:09;;;;;;;;;;;;;;;3.92;82.79;99609.38;5071022;28;19972;-28
2022/12/13 05:34:35;;;;;;;;;;;;;;;3.98;83.44;99611.28;5089075;28;20347;-32
2022/12/13 05:37:00;;;;;;;;;;;;;;;3.93;82.49;99618.94;5070696;28;19916;-30
2022/12/13 05:39:25;;;;;;;;;;;;;;;3.77;82.06;99621.78;5089148;28;20422;-29
2022/12/13 05:41:51;;;;;;;;;;;;;;;3.81;82.17;99620.41;5088543;28;19923;-28
2022/12/13 05:44:16;;;;;;;;;;;;;;;3.79;83.39;99632.97;5070289;28;19912;-27
2022/12/13 05:46:42;;;;;;;;;;;;;;;3.80;82.52;99635.44;5087959;28;19923;-29
2022/12/13 05:49:07;;;;;;;;;;;;;;;3.64;83.59;99648.84;5088742;28;19993;-28
2022/12/13 05:51:32;;;;;;;;;;;;;;;3.80;82.89;99650.41;5088970;28;19923;-27
2022/12/13 05:53:58;;;;;;;;;;;;;;;3.84;83.31;99649.03;5088456;28;20304;-31
2022/12/13 05:56:23;;;;;;;;;;;;;;;4.03;82.83;99656.38;5088539;28;20392;-28
2022/12/13 05:58:48;;;;;;;;;;;;;;;4.06;84.59;99655.19;5088601;28;19959;-27
2022/12/13 06:01:14;;;;;;;;;;;;;;;4.23;81.17;99663.72;5070547;28;19918;-27
2022/12/13 06:03:40;;;;;;;;;;;;;;;4.25;83.00;99663.50;5069973;28;19969;-27
2022/12/13 06:06:06;;;;;;;;;;;;;;;4.34;82.17;99673.75;5070069;28;19949;-29
2022/12/13 06:08:31;;;;;;;;;;;;;;;4.05;84.02;99666.75;5088166;28;19916;-30
2022/12/13 06:10:58;;;;;;;;;;;;;;;4.33;84.33;99676.56;5070169;28;19912;-27
2022/12/13 06:13:24;;;;;;;;;;;;;;;4.37;83.69;99681.31;5088203;28;19912;-32
2022/12/13 06:15:49;;;;;;;;;;;;;;;4.56;83.83;99687.78;5069699;28;19916;-28
2022/12/13 06:18:14;;;;;;;;;;;;;;;4.59;82.07;99697.16;5087404;28;19924;-28
2022/12/13 06:20:40;;;;;;;;;;;;;;;4.54;83.39;99695.09;5088191;28;19916;-29
2022/12/13 06:23:05;;;;;;;;;;;;;;;4.58;81.77;99700.81;5087812;28;19919;-28
2022/12/13 06:25:30;;;;;;;;;;;;;;;4.52;81.28;99709.50;5069649;28;19916;-30
2022/12/13 06:27:56;;;;;;;;;;;;;;;4.47;83.13;99714.50;5087772;28;19916;-31
2022/12/13 06:30:21;;;;;;;;;;;;;;;4.42;82.62;99712.44;5088096;28;19915;-28
2022/12/13 06:32:47;;;;;;;;;;;;;;;4.40;83.70;99714.44;5088315;28;19986;-29
2022/12/13 06:35:12;;;;;;;;;;;;;;;4.54;82.20;99720.69;5088039;28;19973;-27
2022/12/13 06:37:38;;;;;;;;;;;;;;;4.77;82.04;99731.88;5069741;28;19974;-28
2022/12/13 06:40:03;;;;;;;;;;;;;;;4.80;81.78;99728.84;5087665;28;20288;-29
2022/12/13 06:42:28;;;;;;;;;;;;;;;4.81;81.78;99727.84;5087266;28;19927;-27
2022/12/13 06:44:54;;;;;;;;;;;;;;;4.68;83.66;99734.81;5087899;28;19916;-29
2022/12/13 06:47:19;;;;;;;;;;;;;;;5.08;83.19;99732.53;5087402;28;19916;-28
2022/12/13 06:49:45;;;;;;;;;;;;;;;5.12;82.96;99733.78;5087377;28;19949;-28
2022/12/13 06:52:11;;;;;;;;;;;;;;;5.22;81.73;99736.91;5068894;28;20415;-34
2022/12/13 06:54:36;;;;;;;;;;;;;;;5.35;82.17;99749.41;5068503;28;20358;-29
2022/12/13 06:57:02;;;;;;;;;;;;;;;5.32;82.13;99742.69;5068820;28;19959;-30
2022/12/13 06:59:27;;;;;;;;;;;;;;;5.35;80.95;99749.41;5086909;28;19919;-30
2022/12/13 07:01:52;;;;;;;;;;;;;;;5.46;80.41;99751.53;5087430;28;20385;-30
2022/12/13 07:04:17;;;;;;;;;;;;;;;5.35;80.73;99754.69;5068980;28;19912;-28
2022/12/13 07:06:43;;;;;;;;;;;;;;;5.26;80.43;99750.56;5087284;28;20384;-28
2022/12/13 07:09:08;;;;;;;;;;;;;;;5.09;80.16;99750.00;5087244;28;19972;-27
2022/12/13 07:11:33;;;;;;;;;;;;;;;5.10;80.94;99746.38;5068959;28;20402;-28
2022/12/13 07:13:59;;;;;;;;;;;;;;;5.21;77.53;99741.41;5086911;28;19973;-31
2022/12/13 07:16:26;;;;;;;;;;;;;;;4.98;79.98;99754.81;5068765;28;20323;-28
2022/12/13 07:18:55;;;;;;;;;;;;;;;4.95;77.14;99757.84;5069047;28;19931;-28
2022/12/13 07:21:20;;;;;;;;;;;;;;;5.00;77.98;99747.50;5086991;28;20292;-28
2022/12/13 07:23:46;;;;;;;;;;;;;;;5.08;77.90;99751.84;5087209;28;19919;-28
2022/12/13 07:26:11;;;;;;;;;;;;;;;5.13;78.37;99752.09;5086747;28;20019;-26
2022/12/13 07:28:37;;;;;;;;;;;;;;;4.95;78.09;99764.97;5068620;28;19916;-28
2022/12/13 07:31:03;;;;;;;;;;;;;;;5.11;77.64;99767.34;5087089;28;19922;-28
2022/12/13 07:33:29;;;;;;;;;;;;;;;5.16;78.38;99772.03;5087083;28;19916;-32
2022/12/13 07:36:00;;;;;;;;;;;;;;;5.26;77.91;99779.66;5087005;28;19912;-27
2022/12/13 07:38:26;;;;;;;;;;;;;;;5.48;75.06;99786.53;5068868;28;20023;-32
2022/12/13 07:40:55;;;;;;;;;;;;;;;5.55;76.18;99786.59;5068643;28;19998;-28
2022/12/13 07:43:20;;;;;;;;;;;;;;;5.70;74.75;99789.13;5068833;28;19969;-29
2022/12/13 07:45:45;;;;;;;;;;;;;;;5.88;76.68;99781.50;5087009;28;20362;-28
2022/12/13 07:48:10;;;;;;;;;;;;;;;5.74;76.01;99791.22;5086983;28;19958;-32
2022/12/13 07:50:36;;;;;;;;;;;;;;;6.02;76.54;99788.53;5086971;28;19916;-30
2022/12/13 07:53:07;;;;;;;;;;;;;;;5.56;77.46;99789.03;5086787;28;20417;-28
2022/12/13 07:55:33;;;;;;;;;;;;;;;5.55;79.24;99797.97;5086759;28;19916;-31
2022/12/13 07:58:09;;;;;;;;;;;;;;;5.95;78.13;99792.97;5068390;28;19916;-33
2022/12/13 08:00:36;;;;;;;;;;;;;;;5.97;76.83;99795.44;5068681;28;20007;-29
2022/12/13 08:03:01;;;;;;;;;;;;;;;6.08;77.05;99802.81;5068583;28;20466;-30
2022/12/13 08:05:27;;;;;;;;;;;;;;;5.99;76.84;99804.81;5086946;28;19916;-27
2022/12/13 08:07:52;;;;;;;;;;;;;;;6.27;70.32;99811.84;5086449;28;19951;-30
2022/12/13 08:10:18;;;;;;;;;;;;;;;6.29;72.21;99807.19;5088186;28;19962;-31
2022/12/13 08:12:43;;;;;;;;;;;;;;;6.33;73.87;99818.22;5090589;28;19930;-29
2022/12/13 08:15:08;;;;;;;;;;;;;;;6.55;70.18;99824.22;5090801;28;19920;-28
2022/12/13 08:17:34;;;;;;;;;;;;;;;6.39;66.89;99823.53;5090495;28;19916;-28
2022/12/13 08:19:59;;;;;;;;;;;;;;;5.81;65.74;99833.56;5090319;28;19923;-29
2022/12/13 08:22:24;;;;;;;;;;;;;;;6.41;72.12;99818.84;5090214;28;19970;-31
2022/12/13 08:24:50;;;;;;;;;;;;;;;8.55;67.00;99830.28;5071688;28;19916;-30
2022/12/13 08:27:15;;;;;;;;;;;;;;;7.26;63.35;99838.88;5090435;28;19935;-31
2022/12/13 08:29:40;;;;;;;;;;;;;;;8.08;64.17;99842.06;5090267;28;20339;-27
2022/12/13 08:32:07;;;;;;;;;;;;;;;7.36;65.37;99845.41;5090491;28;19912;-27
2022/12/13 08:34:32;;;;;;;;;;;;;;;8.82;65.75;99846.91;5089975;28;20731;-29
2022/12/13 08:36:59;;;;;;;;;;;;;;;10.30;59.68;99857.25;5071438;28;19955;-28
2022/12/13 08:39:24;;;;;;;;;;;;;;;9.24;62.01;99849.97;5089817;28;19916;-31
2022/12/13 08:41:49;;;;;;;;;;;;;;;9.65;63.00;99840.63;5089744;28;19922;-28
2022/12/13 08:44:15;;;;;;;;;;;;;;;9.75;60.95;99844.66;5089973;28;20586;-28
2022/12/13 08:46:40;;;;;;;;;;;;;;;9.68;61.18;99843.88;5071439;28;19919;-30
2022/12/13 08:49:05;;;;;;;;;;;;;;;11.01;58.50;99858.41;5071560;28;19912;-29
2022/12/13 08:51:30;;;;;;;;;;;;;;;9.55;58.96;99850.16;5089850;28;20011;-28
2022/12/13 08:53:56;;;;;;;;;;;;;;;10.22;60.86;99839.69;5089198;28;19912;-33
2022/12/13 08:56:21;;;;;;;;;;;;;;;8.66;55.89;99858.03;5089648;28;19916;-28
2022/12/13 08:58:50;;;;;;;;;;;;;;;8.79;61.24;99851.88;5089491;28;20571;-31
2022/12/13 09:01:15;;;;;;;;;;;;;;;8.81;58.43;99855.94;5089312;28;20370;-29
2022/12/13 09:03:41;;;;;;;;;;;;;;;8.89;58.90;99851.38;5089017;28;19912;-31
2022/12/13 09:06:14;;;;;;;;;;;;;;;8.82;56.43;99857.56;5089442;28;19916;-28
2022/12/13 09:08:39;;;;;;;;;;;;;;;8.54;56.25;99859.72;5071038;28;19931;-29
2022/12/13 09:11:06;;;;;;;;;;;;;;;7.79;58.61;99852.13;5089323;28;19916;-28
2022/12/13 09:13:32;;;;;;;;;;;;;;;7.01;61.08;99850.03;5071161;28;19912;-27
2022/12/13 09:15:58;;;;;;;;;;;;;;;7.07;62.06;99845.75;5089048;28;19916;-29
2022/12/13 09:18:24;;;;;;;;;;;;;;;7.28;65.99;99839.47;5089144;28;19927;-27
2022/12/13 09:20:49;;;;;;;;;;;;;;;7.62;64.88;99836.63;5088764;28;19924;-30
2022/12/13 09:23:15;;;;;;;;;;;;;;;7.88;61.15;99837.59;5069870;28;19916;-29
2022/12/13 09:25:40;;;;;;;;;;;;;;;7.57;63.34;99828.44;5089067;28;19930;-29
2022/12/13 09:28:06;;;;;;;;;;;;;;;7.36;59.34;99821.53;5089051;28;19948;-31
2022/12/13 09:30:31;;;;;;;;;;;;;;;6.86;61.67;99815.72;5070537;28;20351;-29
2022/12/13 09:32:56;;;;;;;;;;;;;;;6.72;60.23;99819.38;5089030;28;19912;-29
2022/12/13 09:35:22;;;;;;;;;;;;;;;7.17;63.18;99817.84;5088969;28;19916;-28
2022/12/13 09:37:47;;;;;;;;;;;;;;;7.35;63.45;99819.88;5088521;28;19943;-28
2022/12/13 09:40:21;;;;;;;;;;;;;;;9.56;69.48;99804.69;5070662;28;19912;-29
2022/12/13 09:42:48;;;;;;;;;;;;;;;10.21;60.13;99806.88;5088912;28;20039;-29
2022/12/13 09:45:13;;;;;;;;;;;;;;;11.30;58.05;99802.56;5070307;28;19916;-28
2022/12/13 09:47:40;;;;;;;;;;;;;;;10.64;54.08;99807.81;5088426;28;20416;-32
2022/12/13 09:50:32;;;;;;;;;;;;;;;9.32;55.01;99802.84;5070148;28;19916;-27
2022/12/13 09:52:59;;;;;;;;;;;;;;;8.57;56.22;99779.59;5066979;28;19912;-27
2022/12/13 09:55:29;;;;;;;;;;;;;;;8.84;58.38;99790.88;5088686;28;19973;-28
2022/12/13 09:57:54;;;;;;;;;;;;;;;9.40;64.41;99783.94;5069853;28;20061;-28
2022/12/13 10:00:26;;;;;;;;;;;;;;;9.58;59.51;99783.97;5069868;28;20006;-29
2022/12/13 10:02:53;;;;;;;;;;;;;;;9.36;60.49;99772.09;5070038;28;19920;-28
2022/12/13 10:05:20;;;;;;;;;;;;;;;9.31;60.21;99759.44;5070305;28;19916;-30
2022/12/13 10:07:45;;;;;;;;;;;;;;;9.98;56.81;99770.25;5087747;28;20349;-27
2022/12/13 10:10:13;;;;;;;;;;;;;;;8.98;57.72;99757.03;5088544;28;19915;-36
2022/12/13 10:12:39;;;;;;;;;;;;;;;8.75;54.12;99771.72;5069656;28;20003;-28
2022/12/13 10:15:06;;;;;;;;;;;;;;;8.94;58.39;99759.31;5069786;28;19924;-30
2022/12/13 10:17:35;;;;;;;;;;;;;;;9.03;58.03;99778.47;5069565;28;19968;-33
2022/12/13 10:20:01;;;;;;;;;;;;;;;9.07;56.57;99774.34;5069596;28;19916;-31
2022/12/13 10:22:30;;;;;;;;;;;;;;;8.74;55.74;99767.41;5087817;28;19919;-28
2022/12/13 10:24:55;;;;;;;;;;;;;;;10.40;58.60;99773.06;5069599;28;19919;-28
2022/12/13 10:27:20;;;;;;;;;;;;;;;9.39;56.29;99779.63;5069466;28;19916;-28
2022/12/13 10:30:00;;;;;;;;;;;;;;;8.70;56.95;99766.22;5087368;28;20037;-29
2022/12/13 10:32:25;;;;;;;;;;;;;;;8.90;55.34;99768.75;5087879;28;19961;-28
2022/12/13 10:34:54;;;;;;;;;;;;;;;9.17;57.62;99757.91;5087245;28;19924;-27
2022/12/13 10:37:30;;;;;;;;;;;;;;;9.34;53.30;99766.19;5069502;28;19969;-29
2022/12/13 10:39:55;;;;;;;;;;;;;;;9.74;52.87;99763.94;5069256;28;19969;-29
2022/12/13 10:42:21;;;;;;;;;;;;;;;9.54;53.12;99761.50;5087734;28;19921;-30
2022/12/13 10:44:48;;;;;;;;;;;;;;;9.47;56.85;99763.38;5069477;28;19916;-33
2022/12/13 10:47:19;;;;;;;;;;;;;;;9.42;52.93;99765.91;5069352;28;19916;-27
2022/12/13 10:49:50;;;;;;;;;;;;;;;9.63;53.94;99746.84;5068932;28;19966;-27
2022/12/13 10:52:20;;;;;;;;;;;;;;;10.18;51.38;99755.88;5087727;28;19955;-30
2022/12/13 10:54:47;;;;;;;;;;;;;;;11.24;54.28;99749.06;5068883;28;20003;-30
2022/12/13 10:57:12;;;;;;;;;;;;;;;11.37;46.41;99747.19;5087727;28;19974;-28
2022/12/13 10:59:38;;;;;;;;;;;;;;;11.70;49.15;99743.13;5069122;28;19916;-30
2022/12/13 11:02:22;;;;;;;;;;;;;;;11.76;45.50;99755.56;5087446;28;19973;-33
2022/12/13 11:04:47;;;;;;;;;;;;;;;12.22;44.87;99740.50;5087158;28;19915;-28
2022/12/13 11:07:22;;;;;;;;;;;;;;;12.03;43.25;99748.69;5087109;28;20300;-28
2022/12/13 11:09:47;;;;;;;;;;;;;;;12.60;42.32;99742.53;5086681;28;20354;-28
2022/12/13 11:12:15;;;;;;;;;;;;;;;12.48;47.27;99749.00;5087637;28;19915;-28
2022/12/13 11:14:48;;;;;;;;;;;;;;;12.44;41.92;99749.50;5087449;28;20354;-28
2022/12/13 11:17:17;;;;;;;;;;;;;;;12.44;46.57;99744.13;5068987;28;19920;-28
2022/12/13 11:19:47;;;;;;;;;;;;;;;13.49;43.16;99751.78;5068650;28;19920;-31
2022/12/13 11:22:27;;;;;;;;;;;;;;;13.36;41.42;99738.72;5069028;28;20334;-30
2022/12/13 11:24:58;;;;;;;;;;;;;;;12.65;40.46;99728.47;5087347;28;19931;-37
2022/12/13 11:27:23;;;;;;;;;;;;;;;13.13;45.51;99731.66;5087090;28;19916;-28
2022/12/13 11:29:57;;;;;;;;;;;;;;;13.48;46.07;99733.28;5086977;28;20303;-32
2022/12/13 11:32:25;;;;;;;;;;;;;;;13.67;40.75;99734.63;5087391;28;19923;-33
2022/12/13 11:34:51;;;;;;;;;;;;;;;13.56;41.50;99739.03;5087138;28;19923;-30
2022/12/13 11:37:19;;;;;;;;;;;;;;;13.04;44.37;99741.97;5087452;28;19912;-31
2022/12/13 11:39:48;;;;;;;;;;;;;;;12.42;41.78;99734.72;5068635;28;20315;-28
2022/12/13 11:42:24;;;;;;;;;;;;;;;11.72;45.07;99725.00;5086870;28;19920;-28
2022/12/13 11:45:09;;;;;;;;;;;;;;;11.56;47.66;99710.50;5068571;28;19926;-31
2022/12/13 11:47:39;;;;;;;;;;;;;;;11.19;47.76;99710.75;5072633;28;19928;-33
2022/12/13 11:50:12;;;;;;;;;;;;;;;10.69;49.70;99706.63;5091086;28;19916;-28
2022/12/13 11:52:44;;;;;;;;;;;;;;;10.98;47.94;99714.78;5072562;28;19916;-29
2022/12/13 11:55:29;;;;;;;;;;;;;;;10.87;47.09;99703.06;5072342;28;19920;-28
2022/12/13 11:57:57;;;;;;;;;;;;;;;10.90;46.86;99707.13;5090711;28;19918;-30
2022/12/13 12:00:41;;;;;;;;;;;;;;;11.56;45.61;99716.66;5090855;28;19922;-28
2022/12/13 12:03:27;;;;;;;;;;;;;;;12.03;43.45;99703.25;5072348;28;19988;-28
2022/12/13 12:05:56;;;;;;;;;;;;;;;12.12;44.21;99705.56;5072107;28;19912;-29
2022/12/13 12:08:21;;;;;;;;;;;;;;;12.10;40.86;99708.47;5072368;28;19979;-28
2022/12/13 12:10:48;;;;;;;;;;;;;;;12.73;42.18;99714.69;5090931;28;20016;-29
2022/12/13 12:13:19;;;;;;;;;;;;;;;13.55;41.38;99732.06;5071683;28;20446;-29
2022/12/13 12:15:49;;;;;;;;;;;;;;;14.15;39.71;99724.22;5069210;28;20679;-30
2022/12/13 12:18:15;;;;;;;;;;;;;;;14.94;38.41;99728.28;5089737;28;19927;-28
2022/12/13 12:20:58;;;;;;;;;;;;;;;15.24;35.08;99727.69;5071968;28;19930;-29
2022/12/13 12:23:41;;;;;;;;;;;;;;;15.56;37.29;99716.06;5089918;28;19976;-30
2022/12/13 12:26:13;;;;;;;;;;;;;;;16.42;33.63;99715.63;5088403;28;19942;-28
2022/12/13 12:28:41;;;;;;;;;;;;;;;16.60;32.78;99719.69;5086861;28;19954;-30
2022/12/13 12:31:11;;;;;;;;;;;;;;;17.08;31.82;99724.88;5071280;28;19912;-30
2022/12/13 12:33:46;;;;;;;;;;;;;;;17.58;31.44;99731.28;5068657;28;19916;-28
2022/12/13 12:36:11;;;;;;;;;;;;;;;17.78;32.17;99737.69;5089498;28;19912;-28
2022/12/13 12:38:46;;;;;;;;;;;;;;;18.00;30.84;99734.66;5089550;28;20028;-29
2022/12/13 12:41:20;;;;;;;;;;;;;;;18.21;30.60;99735.41;5089994;28;19962;-29
2022/12/13 12:43:51;;;;;;;;;;;;;;;18.39;30.26;99732.06;5090078;28;19984;-30
2022/12/13 12:46:17;;;;;;;;;;;;;;;18.69;30.18;99724.84;5090322;28;19912;-29
2022/12/13 12:48:48;;;;;;;;;;;;;;;18.51;31.40;99717.41;5071434;28;19942;-28
2022/12/13 12:51:27;;;;;;;;;;;;;;;18.51;29.57;99718.22;5071015;28;19916;-31
2022/12/13 12:54:06;;;;;;;;;;;;;;;18.58;29.08;99726.00;5090054;28;19912;-29
2022/12/13 12:56:41;;;;;;;;;;;;;;;18.18;29.07;99725.16;5071086;28;20002;-33
2022/12/13 12:59:12;;;;;;;;;;;;;;;18.37;30.00;99733.41;5089798;28;19923;-31
2022/12/13 13:01:56;;;;;;;;;;;;;;;19.86;27.83;99733.03;5089609;28;20383;-28
2022/12/13 13:04:24;;;;;;;;;;;;;;;20.05;26.45;99741.97;5089302;28;19946;-33